BHS137 MYNN-MYAM
Flight info
| Callsign | BHS137 |
|---|---|
| Flight time | 0h 35m |
| Altitude | 13000 |
| Route | INGRA2 INGRA |
| Aircraft | AT46/M-SDFGIRY/S |
Departure
| Time | 2026-04-15 15:25 |
|---|---|
| Airport | Lynden Pindling International Airport (MYNN) |
Arrival
| Time | 2026-04-15 16:00 |
|---|---|
| Airport | Leonard M. Thompson International Airport (MYAM) |
| Time | Latitude | Longitude | Altitude | Speed | Heading |
|---|---|---|---|---|---|
| 2026-04-15 14:55 | 25.04759 | -77.46567 | 13 ft | 0 kts | 180° |
| 2026-04-15 15:16 | 25.04767 | -77.46567 | 13 ft | 1 kts | 181° |
| 2026-04-15 15:16 | 25.04772 | -77.46567 | 13 ft | 0 kts | 181° |
| 2026-04-15 15:19 | 25.04766 | -77.46571 | 13 ft | 1 kts | 236° |
| 2026-04-15 15:19 | 25.04769 | -77.46577 | 13 ft | 2 kts | 317° |
| 2026-04-15 15:19 | 25.04779 | -77.46579 | 13 ft | 2 kts | 354° |
| 2026-04-15 15:20 | 25.04793 | -77.46585 | 13 ft | 3 kts | 325° |
| 2026-04-15 15:20 | 25.04811 | -77.46621 | 13 ft | 8 kts | 268° |
| 2026-04-15 15:20 | 25.04769 | -77.46675 | 13 ft | 12 kts | 223° |
| 2026-04-15 15:20 | 25.04706 | -77.46750 | 14 ft | 13 kts | 251° |
| 2026-04-15 15:21 | 25.04723 | -77.46800 | 14 ft | 5 kts | 317° |
| 2026-04-15 15:21 | 25.04757 | -77.46835 | 16 ft | 8 kts | 317° |
| 2026-04-15 15:21 | 25.04800 | -77.46883 | 16 ft | 10 kts | 314° |
| 2026-04-15 15:21 | 25.04852 | -77.46943 | 14 ft | 12 kts | 314° |
| 2026-04-15 15:22 | 25.04913 | -77.47012 | 14 ft | 13 kts | 314° |
| 2026-04-15 15:22 | 25.04978 | -77.47085 | 14 ft | 13 kts | 315° |
| 2026-04-15 15:22 | 25.05044 | -77.47160 | 14 ft | 14 kts | 313° |
| 2026-04-15 15:22 | 25.05112 | -77.47236 | 16 ft | 14 kts | 316° |
| 2026-04-15 15:23 | 25.05182 | -77.47313 | 14 ft | 14 kts | 314° |
| 2026-04-15 15:23 | 25.05221 | -77.47398 | 15 ft | 13 kts | 271° |
| 2026-04-15 15:23 | 25.05217 | -77.47428 | 15 ft | 0 kts | 255° |
| 2026-04-15 15:23 | 25.05215 | -77.47434 | 15 ft | 4 kts | 252° |
| 2026-04-15 15:24 | 25.05194 | -77.47496 | 19 ft | 12 kts | 246° |
| 2026-04-15 15:24 | 25.05128 | -77.47509 | 17 ft | 10 kts | 137° |
| 2026-04-15 15:24 | 25.05013 | -77.47378 | 16 ft | 55 kts | 129° |
| 2026-04-15 15:24 | 25.04586 | -77.46895 | 19 ft | 120 kts | 134° |
| 2026-04-15 15:25 | 25.03906 | -77.46132 | 229 ft | 151 kts | 127° |
| 2026-04-15 15:25 | 25.03215 | -77.45266 | 833 ft | 152 kts | 124° |
| 2026-04-15 15:25 | 25.02517 | -77.44239 | 904 ft | 189 kts | 121° |
| 2026-04-15 15:25 | 25.01608 | -77.43069 | 818 ft | 220 kts | 135° |
| 2026-04-15 15:26 | 25.00420 | -77.41966 | 1390 ft | 218 kts | 136° |
| 2026-04-15 15:26 | 24.99285 | -77.40893 | 1806 ft | 219 kts | 134° |
| 2026-04-15 15:26 | 24.98437 | -77.39545 | 2056 ft | 213 kts | 101° |
| 2026-04-15 15:26 | 24.98582 | -77.37984 | 2366 ft | 208 kts | 62° |
| 2026-04-15 15:27 | 24.99641 | -77.36931 | 2686 ft | 210 kts | 23° |
| 2026-04-15 15:27 | 25.00963 | -77.36506 | 3374 ft | 188 kts | 24° |
| 2026-04-15 15:27 | 25.02116 | -77.35943 | 4020 ft | 175 kts | 32° |
| 2026-04-15 15:27 | 25.03130 | -77.35246 | 4559 ft | 172 kts | 38° |
| 2026-04-15 15:28 | 25.04080 | -77.34418 | 4953 ft | 177 kts | 43° |
| 2026-04-15 15:28 | 25.04971 | -77.33484 | 5406 ft | 174 kts | 50° |
| 2026-04-15 15:28 | 25.05782 | -77.32507 | 5888 ft | 172 kts | 53° |
| 2026-04-15 15:28 | 25.06557 | -77.31504 | 6332 ft | 170 kts | 53° |
| 2026-04-15 15:29 | 25.07310 | -77.30500 | 6804 ft | 167 kts | 54° |
| 2026-04-15 15:29 | 25.08049 | -77.29504 | 7178 ft | 169 kts | 54° |
| 2026-04-15 15:29 | 25.08777 | -77.28505 | 7552 ft | 171 kts | 53° |
| 2026-04-15 15:29 | 25.09520 | -77.27485 | 7935 ft | 171 kts | 53° |
| 2026-04-15 15:30 | 25.10258 | -77.26471 | 8349 ft | 170 kts | 53° |
| 2026-04-15 15:30 | 25.10999 | -77.25449 | 8703 ft | 172 kts | 53° |
| 2026-04-15 15:30 | 25.11777 | -77.24443 | 9070 ft | 173 kts | 41° |
| 2026-04-15 15:30 | 25.12925 | -77.24042 | 9392 ft | 179 kts | 9° |
| 2026-04-15 15:31 | 25.14190 | -77.23982 | 9714 ft | 183 kts | 6° |
| 2026-04-15 15:31 | 25.15459 | -77.23957 | 10071 ft | 183 kts | 5° |
| 2026-04-15 15:31 | 25.16743 | -77.23932 | 10397 ft | 183 kts | 6° |
| 2026-04-15 15:31 | 25.18021 | -77.23901 | 10705 ft | 184 kts | 6° |
| 2026-04-15 15:32 | 25.19304 | -77.23847 | 11014 ft | 185 kts | 7° |
| 2026-04-15 15:32 | 25.20592 | -77.23779 | 11329 ft | 185 kts | 7° |
| 2026-04-15 15:32 | 25.21882 | -77.23709 | 11652 ft | 186 kts | 7° |
| 2026-04-15 15:32 | 25.23161 | -77.23634 | 11966 ft | 187 kts | 7° |
| 2026-04-15 15:33 | 25.24460 | -77.23557 | 12279 ft | 187 kts | 7° |
| 2026-04-15 15:33 | 25.25762 | -77.23482 | 12590 ft | 188 kts | 7° |
| 2026-04-15 15:33 | 25.27070 | -77.23407 | 12897 ft | 189 kts | 7° |
| 2026-04-15 15:33 | 25.28384 | -77.23329 | 13183 ft | 190 kts | 7° |
| 2026-04-15 15:34 | 25.29703 | -77.23252 | 13498 ft | 190 kts | 7° |
| 2026-04-15 15:34 | 25.31025 | -77.23176 | 13800 ft | 191 kts | 6° |
| 2026-04-15 15:34 | 25.32353 | -77.23096 | 14073 ft | 192 kts | 7° |
| 2026-04-15 15:34 | 25.33691 | -77.23016 | 14339 ft | 192 kts | 6° |
| 2026-04-15 15:35 | 25.35031 | -77.22939 | 14592 ft | 193 kts | 6° |
| 2026-04-15 15:35 | 25.36355 | -77.22863 | 14834 ft | 193 kts | 6° |
| 2026-04-15 15:35 | 25.37704 | -77.22784 | 15084 ft | 194 kts | 6° |
| 2026-04-15 15:35 | 25.39048 | -77.22707 | 15320 ft | 194 kts | 6° |
| 2026-04-15 15:36 | 25.40394 | -77.22629 | 15577 ft | 194 kts | 6° |
| 2026-04-15 15:36 | 25.41748 | -77.22542 | 15810 ft | 196 kts | 7° |
| 2026-04-15 15:36 | 25.43104 | -77.22451 | 16081 ft | 195 kts | 7° |
| 2026-04-15 15:36 | 25.44458 | -77.22360 | 16321 ft | 196 kts | 6° |
| 2026-04-15 15:37 | 25.45820 | -77.22264 | 16554 ft | 197 kts | 6° |
| 2026-04-15 15:37 | 25.47187 | -77.22145 | 16787 ft | 197 kts | 8° |
| 2026-04-15 15:37 | 25.48549 | -77.21989 | 17030 ft | 197 kts | 9° |
| 2026-04-15 15:37 | 25.49912 | -77.21807 | 17224 ft | 198 kts | 9° |
| 2026-04-15 15:38 | 25.51279 | -77.21623 | 17448 ft | 198 kts | 9° |
| 2026-04-15 15:38 | 25.52648 | -77.21440 | 17676 ft | 198 kts | 9° |
| 2026-04-15 15:38 | 25.54026 | -77.21258 | 17844 ft | 203 kts | 9° |
| 2026-04-15 15:38 | 25.55462 | -77.21068 | 17917 ft | 213 kts | 9° |
| 2026-04-15 15:39 | 25.56972 | -77.20865 | 17955 ft | 224 kts | 9° |
| 2026-04-15 15:39 | 25.58558 | -77.20643 | 17966 ft | 234 kts | 9° |
| 2026-04-15 15:39 | 25.60172 | -77.20834 | 17974 ft | 244 kts | 339° |
| 2026-04-15 15:39 | 25.61474 | -77.22054 | 17976 ft | 250 kts | 310° |
| 2026-04-15 15:40 | 25.62517 | -77.23589 | 17965 ft | 245 kts | 317° |
| 2026-04-15 15:40 | 25.63939 | -77.24487 | 17979 ft | 234 kts | 353° |
| 2026-04-15 15:40 | 25.65544 | -77.24462 | 17971 ft | 230 kts | 11° |
| 2026-04-15 15:40 | 25.67131 | -77.24177 | 17968 ft | 232 kts | 11° |
| 2026-04-15 15:41 | 25.68742 | -77.23973 | 17970 ft | 233 kts | 6° |
| 2026-04-15 15:41 | 25.70370 | -77.23921 | 17980 ft | 235 kts | 1° |
| 2026-04-15 15:41 | 25.72004 | -77.24016 | 17990 ft | 236 kts | 358° |
| 2026-04-15 15:41 | 25.73640 | -77.24173 | 17984 ft | 236 kts | 357° |
| 2026-04-15 15:42 | 25.75275 | -77.24330 | 17981 ft | 237 kts | 357° |
| 2026-04-15 15:42 | 25.76916 | -77.24484 | 17980 ft | 237 kts | 358° |
| 2026-04-15 15:42 | 25.78004 | -77.24572 | 17982 ft | 237 kts | 358° |
| 2026-04-15 15:42 | 25.79656 | -77.24698 | 17976 ft | 237 kts | 358° |
| 2026-04-15 15:43 | 25.81798 | -77.24859 | 17971 ft | 223 kts | 359° |
| 2026-04-15 15:43 | 25.82820 | -77.24931 | 17965 ft | 213 kts | 359° |
| 2026-04-15 15:43 | 25.84235 | -77.25029 | 17956 ft | 199 kts | 359° |
| 2026-04-15 15:43 | 25.85597 | -77.25130 | 17960 ft | 194 kts | 359° |
| 2026-04-15 15:44 | 25.86944 | -77.25243 | 17914 ft | 196 kts | 359° |
| 2026-04-15 15:44 | 25.88365 | -77.25346 | 17584 ft | 211 kts | 359° |
| 2026-04-15 15:44 | 25.89877 | -77.25451 | 17248 ft | 223 kts | 359° |
| 2026-04-15 15:44 | 25.91433 | -77.25548 | 16901 ft | 225 kts | 360° |
| 2026-04-15 15:45 | 25.92998 | -77.25641 | 16558 ft | 225 kts | 359° |
| 2026-04-15 15:45 | 25.94567 | -77.25750 | 16209 ft | 226 kts | 359° |
| 2026-04-15 15:45 | 25.96143 | -77.25868 | 15864 ft | 227 kts | 359° |
| 2026-04-15 15:45 | 25.97698 | -77.25982 | 15528 ft | 227 kts | 358° |
| 2026-04-15 15:46 | 25.99277 | -77.26099 | 15188 ft | 227 kts | 358° |
| 2026-04-15 15:46 | 26.00856 | -77.26223 | 14852 ft | 228 kts | 359° |
| 2026-04-15 15:46 | 26.02442 | -77.26344 | 14509 ft | 228 kts | 359° |
| 2026-04-15 15:46 | 26.04032 | -77.26458 | 14185 ft | 229 kts | 359° |
| 2026-04-15 15:47 | 26.05621 | -77.26585 | 13832 ft | 229 kts | 358° |
| 2026-04-15 15:47 | 26.07213 | -77.26714 | 13465 ft | 229 kts | 358° |
| 2026-04-15 15:47 | 26.08806 | -77.26839 | 13097 ft | 230 kts | 359° |
| 2026-04-15 15:47 | 26.10402 | -77.26966 | 12733 ft | 230 kts | 359° |
| 2026-04-15 15:48 | 26.11995 | -77.27094 | 12370 ft | 229 kts | 358° |
| 2026-04-15 15:48 | 26.13589 | -77.27218 | 12009 ft | 229 kts | 359° |
| 2026-04-15 15:48 | 26.15177 | -77.27343 | 11658 ft | 229 kts | 0° |
| 2026-04-15 15:48 | 26.16767 | -77.27454 | 11312 ft | 229 kts | 0° |
| 2026-04-15 15:49 | 26.18356 | -77.27557 | 10970 ft | 229 kts | 0° |
| 2026-04-15 15:49 | 26.19946 | -77.27661 | 10619 ft | 228 kts | 0° |
| 2026-04-15 15:49 | 26.21533 | -77.27767 | 10282 ft | 228 kts | 359° |
| 2026-04-15 15:49 | 26.23098 | -77.27874 | 9932 ft | 228 kts | 0° |
| 2026-04-15 15:50 | 26.24684 | -77.27998 | 9560 ft | 228 kts | 360° |
| 2026-04-15 15:50 | 26.26267 | -77.28129 | 9184 ft | 227 kts | 359° |
| 2026-04-15 15:50 | 26.27848 | -77.28252 | 8817 ft | 227 kts | 360° |
| 2026-04-15 15:50 | 26.29428 | -77.28379 | 8461 ft | 227 kts | 359° |
| 2026-04-15 15:51 | 26.31002 | -77.28506 | 8103 ft | 226 kts | 359° |
| 2026-04-15 15:51 | 26.32577 | -77.28624 | 7746 ft | 227 kts | 360° |
| 2026-04-15 15:51 | 26.34148 | -77.28745 | 7394 ft | 226 kts | 0° |
| 2026-04-15 15:51 | 26.35700 | -77.28863 | 7047 ft | 216 kts | 1° |
| 2026-04-15 15:52 | 26.37139 | -77.28969 | 6731 ft | 199 kts | 0° |
| 2026-04-15 15:52 | 26.38478 | -77.29074 | 6427 ft | 186 kts | 1° |
| 2026-04-15 15:52 | 26.39727 | -77.29176 | 6116 ft | 178 kts | 0° |
| 2026-04-15 15:52 | 26.40978 | -77.29265 | 5817 ft | 181 kts | 1° |
| 2026-04-15 15:53 | 26.42262 | -77.29353 | 5515 ft | 189 kts | 0° |
| 2026-04-15 15:53 | 26.43597 | -77.29442 | 5208 ft | 195 kts | 1° |
| 2026-04-15 15:53 | 26.44949 | -77.29530 | 4895 ft | 187 kts | 0° |
| 2026-04-15 15:53 | 26.46184 | -77.29612 | 4590 ft | 170 kts | 2° |
| 2026-04-15 15:54 | 26.47336 | -77.29700 | 4306 ft | 163 kts | 2° |
| 2026-04-15 15:54 | 26.48465 | -77.29798 | 4024 ft | 161 kts | 1° |
| 2026-04-15 15:54 | 26.49531 | -77.29692 | 3781 ft | 148 kts | 32° |
| 2026-04-15 15:54 | 26.50066 | -77.28836 | 3597 ft | 130 kts | 76° |
| 2026-04-15 15:55 | 26.50284 | -77.27895 | 3425 ft | 121 kts | 78° |
| 2026-04-15 15:55 | 26.50427 | -77.27013 | 3225 ft | 113 kts | 81° |
| 2026-04-15 15:55 | 26.50515 | -77.26168 | 3044 ft | 108 kts | 83° |
| 2026-04-15 15:55 | 26.50583 | -77.25298 | 2889 ft | 116 kts | 85° |
| 2026-04-15 15:56 | 26.50619 | -77.24373 | 2726 ft | 122 kts | 86° |
| 2026-04-15 15:56 | 26.50646 | -77.23414 | 2570 ft | 125 kts | 86° |
| 2026-04-15 15:56 | 26.50676 | -77.22430 | 2385 ft | 129 kts | 87° |
| 2026-04-15 15:56 | 26.50692 | -77.21418 | 2233 ft | 131 kts | 88° |
| 2026-04-15 15:57 | 26.50699 | -77.20395 | 2024 ft | 133 kts | 86° |
| 2026-04-15 15:57 | 26.50718 | -77.19367 | 1797 ft | 131 kts | 86° |
| 2026-04-15 15:57 | 26.50739 | -77.18401 | 1657 ft | 120 kts | 86° |
| 2026-04-15 15:57 | 26.50757 | -77.17487 | 1481 ft | 116 kts | 85° |
| 2026-04-15 15:58 | 26.50780 | -77.16593 | 1324 ft | 115 kts | 86° |
| 2026-04-15 15:58 | 26.50806 | -77.15707 | 1153 ft | 113 kts | 85° |
| 2026-04-15 15:58 | 26.50834 | -77.14828 | 1012 ft | 113 kts | 86° |
| 2026-04-15 15:58 | 26.50863 | -77.13962 | 846 ft | 110 kts | 85° |
| 2026-04-15 15:59 | 26.50906 | -77.13123 | 695 ft | 106 kts | 82° |
| 2026-04-15 15:59 | 26.50979 | -77.12303 | 550 ft | 111 kts | 83° |
| 2026-04-15 15:59 | 26.50963 | -77.11449 | 428 ft | 106 kts | 89° |
| 2026-04-15 15:59 | 26.50965 | -77.10644 | 288 ft | 102 kts | 86° |
| 2026-04-15 16:00 | 26.50986 | -77.09825 | 107 ft | 109 kts | 84° |
| 2026-04-15 16:00 | 26.51009 | -77.09061 | 14 ft | 63 kts | 88° |
| 2026-04-15 16:00 | 26.51013 | -77.08731 | 13 ft | 41 kts | 91° |
| 2026-04-15 16:00 | 26.51019 | -77.08412 | 13 ft | 42 kts | 86° |
| 2026-04-15 16:01 | 26.51054 | -77.08123 | 14 ft | 33 kts | 68° |
| 2026-04-15 16:01 | 26.51155 | -77.07924 | 13 ft | 26 kts | 58° |
| 2026-04-15 16:01 | 26.51241 | -77.07790 | 14 ft | 13 kts | 9° |
| 2026-04-15 16:01 | 26.51257 | -77.07828 | 14 ft | 3 kts | 274° |
| 2026-04-15 16:02 | 26.51258 | -77.07838 | 14 ft | 0 kts | 272° |
| 2026-04-15 16:02 | 26.51257 | -77.07841 | 14 ft | 5 kts | 265° |
| 2026-04-15 16:02 | 26.51277 | -77.07882 | 14 ft | 0 kts | 4° |
| 2026-04-15 16:03 | 26.51281 | -77.07881 | 14 ft | 1 kts | 20° |
| 2026-04-15 16:03 | 26.51291 | -77.07874 | 14 ft | 0 kts | 37° |